createdAt,value
2019-03-02T00:00:15.370Z,17.40
2019-03-02T00:02:47.920Z,17.60
2019-03-02T00:05:20.823Z,17.57
2019-03-02T00:07:49.477Z,18.60
2019-03-02T00:10:24.052Z,17.90
2019-03-02T00:12:55.290Z,17.73
2019-03-02T00:15:26.896Z,18.77
2019-03-02T00:17:54.112Z,17.80
2019-03-02T00:20:23.956Z,17.03
2019-03-02T00:22:52.588Z,16.33
2019-03-02T00:25:22.601Z,18.30
2019-03-02T00:27:54.173Z,18.33
2019-03-02T00:30:22.178Z,17.50
2019-03-02T00:32:59.544Z,19.10
2019-03-02T00:35:27.957Z,18.83
2019-03-02T00:37:56.342Z,18.90
2019-03-02T00:40:33.864Z,18.90
2019-03-02T00:43:02.366Z,17.97
2019-03-02T00:45:38.289Z,18.67
2019-03-02T00:48:07.467Z,17.70
2019-03-02T00:50:39.746Z,18.93
2019-03-02T00:53:09.421Z,19.33
2019-03-02T00:55:37.849Z,19.00
2019-03-02T00:58:06.487Z,19.20
2019-03-02T01:00:36.337Z,19.33
2019-03-02T01:03:15.653Z,19.10
2019-03-02T01:05:43.849Z,18.47
2019-03-02T01:08:14.802Z,18.27
2019-03-02T01:10:44.836Z,16.77
2019-03-02T01:13:16.881Z,18.20
2019-03-02T01:15:51.065Z,16.97
2019-03-02T01:18:22.356Z,17.27
2019-03-02T01:20:50.764Z,16.37
2019-03-02T01:23:23.824Z,17.47
2019-03-02T01:25:52.565Z,17.27
2019-03-02T01:28:22.583Z,16.67
2019-03-02T01:30:51.967Z,15.23
2019-03-02T01:33:25.144Z,17.57
2019-03-02T01:35:53.963Z,16.37
2019-03-02T01:38:26.736Z,15.60
2019-03-02T01:40:56.113Z,17.27
2019-03-02T01:43:24.514Z,16.57
2019-03-02T01:45:52.905Z,16.57
2019-03-02T01:48:26.444Z,15.23
2019-03-02T01:50:57.606Z,15.70
2019-03-02T01:53:36.395Z,15.37
2019-03-02T01:56:06.352Z,16.03
2019-03-02T01:58:37.935Z,16.50
2019-03-02T02:01:08.618Z,15.70
2019-03-02T02:03:47.095Z,15.90
2019-03-02T02:06:16.760Z,16.37
2019-03-02T02:08:45.464Z,15.77
2019-03-02T02:11:19.345Z,15.53
2019-03-02T02:13:49.369Z,16.17
2019-03-02T02:16:26.886Z,15.53
2019-03-02T02:18:55.271Z,14.80
2019-03-02T02:21:26.434Z,14.43
2019-03-02T02:23:53.771Z,13.73
2019-03-02T02:26:25.125Z,13.13
2019-03-02T02:28:53.518Z,13.93
2019-03-02T02:31:21.914Z,12.97
2019-03-02T02:33:50.318Z,13.30
2019-03-02T02:36:20.274Z,12.30
2019-03-02T02:38:53.930Z,13.33
2019-03-02T02:41:23.181Z,12.67
2019-03-02T02:43:58.637Z,11.00
2019-03-02T02:46:27.339Z,10.70
2019-03-02T02:48:56.424Z,9.43
2019-03-02T02:51:30.586Z,10.90
2019-03-02T02:53:58.955Z,11.10
2019-03-02T02:56:34.702Z,10.57
2019-03-02T02:59:03.427Z,9.37
2019-03-02T03:01:35.071Z,10.20
2019-03-02T03:04:03.477Z,10.53
2019-03-02T03:06:34.862Z,11.03
2019-03-02T03:09:09.941Z,10.33
2019-03-02T03:11:44.526Z,10.40
2019-03-02T03:14:19.787Z,9.80
2019-03-02T03:16:54.222Z,10.40
2019-03-02T03:19:20.498Z,10.60
2019-03-02T03:21:48.885Z,10.30
2019-03-02T03:24:17.526Z,9.70
2019-03-02T03:26:51.433Z,10.80
2019-03-02T03:29:24.620Z,9.30
2019-03-02T03:32:08.161Z,9.23
2019-03-02T03:34:32.474Z,8.83
2019-03-02T03:36:58.055Z,10.40
2019-03-02T03:39:29.223Z,9.03
2019-03-02T03:42:01.690Z,8.93
2019-03-02T03:44:27.872Z,10.53
2019-03-02T03:47:00.645Z,9.83
2019-03-02T03:49:29.967Z,10.00
2019-03-02T03:51:57.356Z,10.03
2019-03-02T03:54:25.744Z,9.87
2019-03-02T03:56:55.101Z,11.93
2019-03-02T03:59:27.026Z,12.20
2019-03-02T04:01:58.462Z,10.80
2019-03-02T04:04:36.465Z,11.83
2019-03-02T04:07:13.334Z,12.20
2019-03-02T04:10:04.214Z,13.00
2019-03-02T04:12:24.482Z,12.87
2019-03-02T04:14:56.865Z,12.87
2019-03-02T04:17:23.245Z,12.40
2019-03-02T04:19:54.757Z,13.00
2019-03-02T04:22:33.032Z,12.50
2019-03-02T04:25:03.020Z,13.30
2019-03-02T04:27:34.375Z,13.50
2019-03-02T04:30:02.766Z,14.60
2019-03-02T04:32:33.864Z,13.53
2019-03-02T04:35:09.476Z,14.23
2019-03-02T04:37:41.909Z,13.67
2019-03-02T04:40:10.457Z,13.13
2019-03-02T04:42:46.444Z,14.77
2019-03-02T04:45:14.266Z,13.70
2019-03-02T04:47:42.651Z,13.77
2019-03-02T04:50:11.135Z,13.77
2019-03-02T04:52:42.240Z,14.27
2019-03-02T04:55:13.606Z,13.77
2019-03-02T04:57:46.297Z,14.87
2019-03-02T05:00:18.426Z,14.20
2019-03-02T05:02:47.049Z,13.80
2019-03-02T05:05:18.134Z,13.90
2019-03-02T05:07:49.297Z,12.97
2019-03-02T05:10:17.688Z,14.07
2019-03-02T05:12:46.105Z,14.47
2019-03-02T05:15:17.740Z,13.67
2019-03-02T05:17:46.139Z,13.03
2019-03-02T05:20:21.542Z,14.53
2019-03-02T05:22:56.001Z,14.00
2019-03-02T05:25:24.989Z,13.70
2019-03-02T05:27:53.377Z,13.97
2019-03-02T05:30:21.765Z,13.70
2019-03-02T05:32:51.302Z,14.93
2019-03-02T05:35:20.501Z,14.50
2019-03-02T05:37:50.761Z,14.47
2019-03-02T05:40:19.146Z,14.33
2019-03-02T05:42:52.502Z,14.20
2019-03-02T05:45:23.804Z,14.40
2019-03-02T05:47:53.944Z,14.43
2019-03-02T05:50:26.469Z,13.63
2019-03-02T05:52:59.893Z,14.80
2019-03-02T05:55:31.237Z,14.77
2019-03-02T05:58:02.505Z,14.63
2019-03-02T06:00:37.642Z,14.73
2019-03-02T06:03:07.892Z,15.73
2019-03-02T06:05:37.946Z,14.20
2019-03-02T06:08:09.645Z,14.87
2019-03-02T06:10:40.757Z,16.37
2019-03-02T06:13:09.153Z,15.00
2019-03-02T06:15:42.940Z,15.87
2019-03-02T06:18:10.708Z,17.20
2019-03-02T06:20:39.099Z,16.73
2019-03-02T06:23:12.091Z,17.37
2019-03-02T06:25:42.125Z,18.33
2019-03-02T06:28:12.401Z,19.83
2019-03-02T06:30:44.085Z,19.03
2019-03-02T06:33:16.198Z,19.97
2019-03-02T06:35:50.533Z,20.33
2019-03-02T06:38:18.894Z,19.07
2019-03-02T06:40:50.431Z,20.40
2019-03-02T06:43:21.733Z,21.23
2019-03-02T06:45:48.920Z,22.03
2019-03-02T06:48:17.568Z,22.27
2019-03-02T06:50:46.431Z,22.37
2019-03-02T06:53:15.062Z,22.73
2019-03-02T06:55:43.458Z,24.13
2019-03-02T06:58:11.845Z,24.20
2019-03-02T07:00:45.582Z,25.37
2019-03-02T07:03:12.903Z,25.63
2019-03-02T07:05:41.541Z,24.33
2019-03-02T07:08:09.930Z,26.30
2019-03-02T07:10:38.325Z,28.33
2019-03-02T07:13:08.846Z,29.27
2019-03-02T07:15:40.394Z,29.70
2019-03-02T07:18:11.907Z,29.70
2019-03-02T07:20:41.939Z,30.80
2019-03-02T07:23:11.968Z,30.63
2019-03-02T07:25:44.132Z,30.23
2019-03-02T07:28:12.113Z,32.13
2019-03-02T07:30:40.781Z,34.10
2019-03-02T07:33:11.677Z,32.37
2019-03-02T07:35:41.689Z,31.07
2019-03-02T07:38:16.949Z,30.43
2019-03-02T07:40:45.591Z,32.73
2019-03-02T07:43:17.647Z,31.30
2019-03-02T07:45:46.472Z,30.23
2019-03-02T07:48:15.234Z,30.90
2019-03-02T07:50:45.165Z,30.00
2019-03-02T07:53:15.195Z,32.10
2019-03-02T07:55:46.325Z,29.90
2019-03-02T07:58:16.528Z,29.10
2019-03-02T08:00:45.059Z,29.07
2019-03-02T08:03:13.476Z,28.47
2019-03-02T08:05:42.116Z,29.00
2019-03-02T08:08:14.996Z,29.10
2019-03-02T08:10:43.996Z,29.70
2019-03-02T08:13:14.022Z,27.70
2019-03-02T08:15:42.434Z,27.87
2019-03-02T08:18:11.489Z,28.00
2019-03-02T08:20:40.818Z,28.60
2019-03-02T08:23:11.901Z,27.30
2019-03-02T08:25:44.385Z,27.83
2019-03-02T08:28:13.306Z,27.93
2019-03-02T08:30:42.462Z,27.63
2019-03-02T08:33:11.159Z,27.00
2019-03-02T08:35:45.182Z,28.37
2019-03-02T08:38:17.530Z,26.63
2019-03-02T08:40:46.002Z,26.93
2019-03-02T08:43:16.443Z,27.17
2019-03-02T08:45:44.979Z,26.87
2019-03-02T08:48:13.357Z,26.63
2019-03-02T08:50:45.679Z,27.23
2019-03-02T08:53:15.016Z,26.53
2019-03-02T08:55:43.411Z,27.47
2019-03-02T08:58:11.803Z,26.57
2019-03-02T09:00:43.256Z,26.13
2019-03-02T09:03:26.693Z,26.60
2019-03-02T09:05:57.762Z,26.07
2019-03-02T09:08:26.160Z,26.00
2019-03-02T09:10:54.550Z,26.10
2019-03-02T09:13:27.407Z,24.87
2019-03-02T09:15:55.793Z,25.13
2019-03-02T09:18:30.772Z,25.63
2019-03-02T09:20:59.001Z,26.07
2019-03-02T09:23:32.775Z,26.17
2019-03-02T09:26:04.413Z,25.60
2019-03-02T09:28:34.641Z,26.47
2019-03-02T09:31:03.354Z,26.10
2019-03-02T09:33:32.397Z,26.10
2019-03-02T09:36:00.863Z,25.43
2019-03-02T09:38:29.262Z,26.73
2019-03-02T09:40:57.889Z,25.30
2019-03-02T09:43:27.265Z,26.93
2019-03-02T09:45:59.951Z,26.13
2019-03-02T09:48:26.611Z,26.73
2019-03-02T09:50:56.633Z,28.33
2019-03-02T09:53:25.269Z,27.97
2019-03-02T09:55:56.319Z,26.03
2019-03-02T09:58:25.572Z,26.67
2019-03-02T10:00:56.871Z,26.87
2019-03-02T10:03:26.823Z,27.20
2019-03-02T10:05:54.233Z,26.00
2019-03-02T10:08:22.638Z,26.63
2019-03-02T10:10:51.006Z,26.73
2019-03-02T10:13:19.408Z,27.47
2019-03-02T10:15:47.796Z,27.07
2019-03-02T10:18:16.331Z,28.10
2019-03-02T10:20:44.714Z,27.37
2019-03-02T10:23:14.748Z,27.03
2019-03-02T10:25:43.157Z,26.07
2019-03-02T10:28:11.541Z,26.37
2019-03-02T10:30:39.930Z,27.37
2019-03-02T10:33:08.331Z,26.77
2019-03-02T10:35:36.722Z,27.97
2019-03-02T10:38:05.113Z,28.53
2019-03-02T10:40:33.501Z,26.97
2019-03-02T10:43:01.913Z,26.27
2019-03-02T10:45:34.158Z,26.13
2019-03-02T10:48:04.185Z,25.73
2019-03-02T10:50:32.572Z,27.30
2019-03-02T10:53:00.976Z,25.27
2019-03-02T10:55:49.195Z,26.53
2019-03-02T10:58:18.184Z,25.70
2019-03-02T11:00:46.838Z,26.87
2019-03-02T11:03:17.885Z,24.80
2019-03-02T11:05:58.310Z,25.03
2019-03-02T11:08:28.608Z,24.80
2019-03-02T11:11:01.810Z,25.80
2019-03-02T11:13:38.297Z,25.30
2019-03-02T11:16:14.554Z,26.10
2019-03-02T11:18:56.557Z,25.23
2019-03-02T11:21:38.677Z,25.87
2019-03-02T11:24:17.401Z,25.83
2019-03-02T11:27:09.742Z,24.83
2019-03-02T11:29:50.768Z,23.73
2019-03-02T11:32:23.365Z,24.90
2019-03-02T11:35:10.411Z,24.07
2019-03-02T11:37:41.428Z,23.10
2019-03-02T11:40:11.706Z,24.50
2019-03-02T11:42:47.529Z,23.90
2019-03-02T11:45:29.889Z,23.97
2019-03-02T11:48:00.172Z,22.83
2019-03-02T11:50:30.536Z,23.13
2019-03-02T11:53:06.338Z,22.53
2019-03-02T11:55:36.361Z,22.50
2019-03-02T11:58:12.693Z,22.23
2019-03-02T12:00:48.715Z,22.00
2019-03-02T12:03:18.749Z,26.03
2019-03-02T12:06:05.108Z,26.97
2019-03-02T12:08:39.004Z,26.23
2019-03-02T12:11:26.977Z,25.90
2019-03-02T12:14:10.070Z,26.37
2019-03-02T12:16:43.885Z,25.60
2019-03-02T12:19:17.251Z,18.57
2019-03-02T12:21:58.790Z,20.27
2019-03-02T12:24:37.926Z,20.67
2019-03-02T12:27:23.705Z,20.57
2019-03-02T12:30:03.014Z,18.23
2019-03-02T12:32:33.068Z,18.87
2019-03-02T12:35:19.258Z,18.73
2019-03-02T12:37:52.263Z,20.13
2019-03-02T12:40:25.254Z,22.27
2019-03-02T12:42:58.370Z,23.00
2019-03-02T12:45:34.962Z,22.80
2019-03-02T12:48:09.381Z,22.77
2019-03-02T12:50:39.469Z,20.20
2019-03-02T12:53:28.837Z,18.33
2019-03-02T12:56:14.075Z,16.70
2019-03-02T12:59:01.665Z,17.13
2019-03-02T13:01:46.921Z,16.00
2019-03-02T13:04:16.954Z,16.93
2019-03-02T13:06:52.713Z,16.43
2019-03-02T13:09:31.492Z,22.30
2019-03-02T13:12:12.181Z,22.10
2019-03-02T13:14:56.957Z,23.30
2019-03-02T13:17:33.038Z,23.07
2019-03-02T13:20:02.766Z,23.30
2019-03-02T13:22:39.098Z,23.33
2019-03-02T13:25:25.612Z,23.17
2019-03-02T13:28:10.945Z,20.03
2019-03-02T13:30:53.253Z,20.97
2019-03-02T13:33:30.080Z,18.73
2019-03-02T13:36:04.658Z,16.00
2019-03-02T13:38:35.431Z,11.57
2019-03-02T13:41:09.214Z,9.73
2019-03-02T13:43:42.736Z,9.73
2019-03-02T13:46:18.337Z,11.03
2019-03-02T13:48:50.174Z,11.33
2019-03-02T13:51:31.207Z,11.50
2019-03-02T13:54:09.453Z,12.00
2019-03-02T13:56:39.487Z,12.23
2019-03-02T13:59:18.729Z,13.03
2019-03-02T14:01:52.591Z,13.03
2019-03-02T14:04:28.230Z,13.63
2019-03-02T14:07:12.857Z,13.10
2019-03-02T14:09:48.617Z,12.80
2019-03-02T14:12:22.757Z,12.80
2019-03-02T14:14:52.787Z,11.90
2019-03-02T14:17:26.605Z,12.50
2019-03-02T14:20:01.680Z,12.73
2019-03-02T14:22:40.219Z,11.77
2019-03-02T14:25:25.214Z,12.27
2019-03-02T14:28:13.420Z,11.27
2019-03-02T14:30:52.700Z,11.60
2019-03-02T14:33:29.408Z,11.57
2019-03-02T14:36:06.393Z,10.90
2019-03-02T14:38:41.838Z,10.70
2019-03-02T14:41:24.425Z,10.07
2019-03-02T14:44:10.342Z,10.43
2019-03-02T14:46:46.259Z,10.07
2019-03-02T14:49:24.373Z,10.33
2019-03-02T14:52:01.813Z,10.07
2019-03-02T14:54:31.871Z,10.00
2019-03-02T14:57:04.691Z,9.73
2019-03-02T14:59:37.941Z,10.00
2019-03-02T15:02:25.024Z,9.27
2019-03-02T15:05:11.620Z,7.40
2019-03-02T15:07:55.313Z,9.23
2019-03-02T15:10:40.749Z,9.00
2019-03-02T15:13:13.605Z,8.43
2019-03-02T15:15:46.906Z,8.07
2019-03-02T15:18:35.034Z,8.40
2019-03-02T15:21:11.553Z,7.73
2019-03-02T15:23:42.566Z,6.83
2019-03-02T15:26:28.914Z,6.60
2019-03-02T15:28:58.948Z,6.50
2019-03-02T15:31:45.171Z,5.40
2019-03-02T15:34:32.013Z,5.57
2019-03-02T15:37:04.987Z,5.67
2019-03-02T15:39:37.698Z,5.03
2019-03-02T15:42:18.054Z,4.53
2019-03-02T15:45:05.611Z,4.57
2019-03-02T15:47:35.714Z,4.47
2019-03-02T15:50:17.846Z,4.73
2019-03-02T15:53:05.241Z,4.50
2019-03-02T15:55:41.274Z,4.77
2019-03-02T15:58:27.838Z,4.37
2019-03-02T16:01:12.989Z,4.27
2019-03-02T16:03:57.288Z,3.93
2019-03-02T16:06:27.929Z,3.67
2019-03-02T16:09:15.398Z,4.10
2019-03-02T16:12:04.308Z,4.30
2019-03-02T16:14:39.275Z,4.07
2019-03-02T16:17:11.990Z,4.20
2019-03-02T16:20:02.183Z,4.70
2019-03-02T16:22:46.344Z,4.27
2019-03-02T16:25:30.989Z,4.73
2019-03-02T16:28:07.027Z,4.70
2019-03-02T16:30:53.894Z,4.27
2019-03-02T16:33:35.560Z,3.97
2019-03-02T16:36:11.665Z,4.37
2019-03-02T16:38:41.782Z,3.80
2019-03-02T16:41:11.876Z,4.03
2019-03-02T16:43:41.905Z,3.97
2019-03-02T16:46:12.085Z,3.90
2019-03-02T16:49:01.046Z,3.93
2019-03-02T16:51:43.590Z,4.03
2019-03-02T16:54:33.288Z,3.77
2019-03-02T16:57:30.244Z,4.90
2019-03-02T17:00:18.099Z,4.20
2019-03-02T17:03:06.856Z,3.13
2019-03-02T17:05:52.097Z,3.70
2019-03-02T17:08:38.473Z,2.97
2019-03-02T17:11:12.681Z,3.03
2019-03-02T17:13:45.625Z,3.37
2019-03-02T17:16:18.630Z,3.40
2019-03-02T17:18:48.895Z,3.77
2019-03-02T17:21:28.705Z,3.27
2019-03-02T17:24:08.041Z,3.07
2019-03-02T17:26:46.024Z,3.93
2019-03-02T17:29:15.804Z,3.27
2019-03-02T17:31:51.547Z,3.90
2019-03-02T17:34:24.518Z,3.43
2019-03-02T17:39:49.712Z,2.97
2019-03-02T17:42:22.806Z,2.83
2019-03-02T17:45:05.049Z,2.20
2019-03-02T17:47:42.639Z,2.73
2019-03-02T17:50:12.634Z,2.50
2019-03-02T17:52:43.225Z,2.27
2019-03-02T17:55:28.762Z,2.93
2019-03-02T17:58:18.482Z,2.90
2019-03-02T18:00:56.935Z,3.43
2019-03-02T18:03:38.542Z,2.83
2019-03-02T18:06:08.818Z,3.13
2019-03-02T18:08:48.548Z,2.70
2019-03-02T18:11:31.279Z,2.83
2019-03-02T18:14:10.240Z,3.20
2019-03-02T18:16:59.769Z,3.40
2019-03-02T18:19:28.677Z,2.87
2019-03-02T18:21:57.222Z,2.47
2019-03-02T18:24:25.776Z,2.50
2019-03-02T18:26:57.021Z,2.70
2019-03-02T18:29:29.279Z,2.97
2019-03-02T18:31:59.231Z,2.90
2019-03-02T18:34:27.865Z,2.60
2019-03-02T18:37:02.453Z,2.60
2019-03-02T18:39:30.908Z,2.40
2019-03-02T18:42:00.943Z,2.60
2019-03-02T18:44:29.330Z,2.80
2019-03-02T18:47:00.687Z,2.63
2019-03-02T18:49:36.761Z,2.47
2019-03-02T18:52:22.864Z,2.80
2019-03-02T18:54:52.868Z,2.50
2019-03-02T18:57:22.768Z,2.53
2019-03-02T18:59:51.161Z,3.10
2019-03-02T19:02:21.059Z,3.37
2019-03-02T19:04:49.688Z,2.80
2019-03-02T19:07:18.307Z,3.00
2019-03-02T19:09:46.765Z,2.60
2019-03-02T19:12:16.691Z,2.40
2019-03-02T19:14:45.297Z,2.43
2019-03-02T19:17:15.333Z,2.33
2019-03-02T19:19:43.958Z,2.03
2019-03-02T19:22:14.012Z,2.47
2019-03-02T19:24:42.396Z,2.80
2019-03-02T19:27:11.031Z,2.20
2019-03-02T19:29:39.489Z,2.10
2019-03-02T19:32:10.616Z,2.27
2019-03-02T19:34:39.003Z,2.40
2019-03-02T19:37:07.385Z,1.93
2019-03-02T19:39:36.474Z,1.90
2019-03-02T19:42:05.045Z,1.87
2019-03-02T19:44:34.145Z,1.90
2019-03-02T19:47:02.521Z,1.93
2019-03-02T19:49:30.944Z,1.90
2019-03-02T19:52:01.206Z,1.90
2019-03-02T19:54:30.485Z,2.30
2019-03-02T19:56:58.869Z,2.20
2019-03-02T19:59:28.904Z,2.10
2019-03-02T20:01:57.285Z,2.20
2019-03-02T20:04:25.666Z,2.17
2019-03-02T20:06:54.073Z,2.53
2019-03-02T20:09:23.113Z,3.50
2019-03-02T20:11:51.501Z,3.40
2019-03-02T20:14:20.258Z,3.57
2019-03-02T20:16:53.241Z,3.43
2019-03-02T20:19:21.625Z,3.87
2019-03-02T20:21:50.014Z,3.70
2019-03-02T20:24:18.625Z,3.70
2019-03-02T20:26:49.963Z,3.83
2019-03-02T20:29:24.165Z,3.97
2019-03-02T20:31:52.565Z,3.50
2019-03-02T20:34:23.638Z,3.83
2019-03-02T20:36:57.409Z,3.10
2019-03-02T20:39:27.433Z,3.33
2019-03-02T20:41:58.739Z,3.60
2019-03-02T20:44:30.673Z,2.80
2019-03-02T20:46:59.029Z,3.10
2019-03-02T20:49:27.514Z,3.33
2019-03-02T20:51:56.126Z,3.60
2019-03-02T20:54:24.501Z,3.47
2019-03-02T20:56:55.474Z,3.70
2019-03-02T20:59:24.169Z,4.13
2019-03-02T21:01:52.545Z,3.80
2019-03-02T21:04:21.181Z,3.80
2019-03-02T21:06:49.830Z,3.73
2019-03-02T21:09:18.261Z,3.73
2019-03-02T21:11:48.253Z,3.70
2019-03-02T21:14:16.716Z,3.63
2019-03-02T21:16:45.110Z,3.73
2019-03-02T21:19:13.515Z,3.83
2019-03-02T21:21:42.740Z,3.53
2019-03-02T21:24:14.861Z,2.87
2019-03-02T21:26:46.129Z,3.60
2019-03-02T21:29:14.517Z,3.50
2019-03-02T21:31:46.098Z,3.50
2019-03-02T21:34:17.473Z,3.70
2019-03-02T21:36:45.953Z,3.30
2019-03-02T21:39:14.420Z,3.57
2019-03-02T21:41:42.811Z,3.73
2019-03-02T21:44:11.188Z,3.70
2019-03-02T21:46:40.614Z,3.57
2019-03-02T21:49:08.993Z,4.10
2019-03-02T21:51:37.397Z,3.63
2019-03-02T21:54:10.013Z,3.57
2019-03-02T21:56:38.393Z,4.40
2019-03-02T21:59:06.789Z,3.87
2019-03-02T22:01:35.235Z,3.80
2019-03-02T22:04:03.744Z,3.67
2019-03-02T22:06:32.125Z,3.60
2019-03-02T22:09:00.608Z,4.27
2019-03-02T22:11:29.217Z,4.47
2019-03-02T22:14:01.255Z,4.77
2019-03-02T22:16:30.797Z,5.13
2019-03-02T22:19:13.782Z,5.93
2019-03-02T22:21:48.219Z,5.67
2019-03-02T22:24:16.817Z,5.23
2019-03-02T22:26:45.219Z,6.13
2019-03-02T22:29:13.592Z,6.20
2019-03-02T22:31:42.219Z,6.57
2019-03-02T22:34:10.841Z,6.77
2019-03-02T22:36:39.257Z,7.30
2019-03-02T22:39:07.634Z,7.97
2019-03-02T22:41:36.261Z,8.10
2019-03-02T22:44:05.724Z,8.57
2019-03-02T22:46:34.126Z,8.57
2019-03-02T22:49:05.743Z,8.37
2019-03-02T22:51:35.062Z,9.30
2019-03-02T22:54:03.442Z,7.80
2019-03-02T22:56:37.478Z,7.97
2019-03-02T22:59:05.168Z,8.53
2019-03-02T23:01:44.040Z,7.73
2019-03-02T23:04:15.345Z,8.57
2019-03-02T23:06:45.972Z,7.23
2019-03-02T23:09:15.993Z,8.27
2019-03-02T23:11:47.886Z,8.13
2019-03-02T23:14:16.314Z,7.77
2019-03-02T23:16:44.933Z,8.00
2019-03-02T23:19:15.965Z,8.03
2019-03-02T23:21:44.590Z,8.50
2019-03-02T23:24:13.127Z,8.70
2019-03-02T23:26:46.014Z,8.37
2019-03-02T23:29:14.651Z,7.87
2019-03-02T23:31:44.687Z,8.97
2019-03-02T23:34:13.081Z,9.30
2019-03-02T23:36:41.462Z,9.03
2019-03-02T23:39:12.259Z,9.13
2019-03-02T23:41:43.472Z,9.10
2019-03-02T23:44:11.856Z,9.07
2019-03-02T23:46:40.249Z,8.33
2019-03-02T23:49:08.632Z,8.13
2019-03-02T23:51:37.417Z,7.83
2019-03-02T23:54:08.236Z,9.27
2019-03-02T23:56:36.634Z,8.33
2019-03-02T23:59:06.670Z,7.90
